createdAt,value
2018-02-18T00:01:54.020Z,0.92
2018-02-18T00:04:21.832Z,0.93
2018-02-18T00:06:49.498Z,0.92
2018-02-18T00:09:17.020Z,0.92
2018-02-18T00:11:44.644Z,0.93
2018-02-18T00:14:13.246Z,0.92
2018-02-18T00:16:40.750Z,0.92
2018-02-18T00:19:08.869Z,0.92
2018-02-18T00:21:36.378Z,0.92
2018-02-18T00:24:03.899Z,0.93
2018-02-18T00:26:31.476Z,0.95
2018-02-18T00:28:59.039Z,0.98
2018-02-18T00:31:26.548Z,1.00
2018-02-18T00:33:54.304Z,0.98
2018-02-18T00:36:22.308Z,0.99
2018-02-18T00:38:49.829Z,0.96
2018-02-18T00:41:17.365Z,0.96
2018-02-18T00:43:44.880Z,1.01
2018-02-18T00:46:12.728Z,1.01
2018-02-18T00:48:40.392Z,1.06
2018-02-18T00:51:08.125Z,1.03
2018-02-18T00:53:35.640Z,1.05
2018-02-18T00:56:04.512Z,1.08
2018-02-18T00:58:32.039Z,1.05
2018-02-18T01:00:59.548Z,1.08
2018-02-18T01:03:27.064Z,1.06
2018-02-18T01:05:54.817Z,1.06
2018-02-18T01:08:22.339Z,1.07
2018-02-18T01:10:50.054Z,1.08
2018-02-18T01:13:17.783Z,1.09
2018-02-18T01:15:45.638Z,1.10
2018-02-18T01:18:13.486Z,1.11
2018-02-18T01:20:41.140Z,1.12
2018-02-18T01:23:08.714Z,1.09
2018-02-18T01:25:36.223Z,1.07
2018-02-18T01:28:03.780Z,1.08
2018-02-18T01:30:31.295Z,1.05
2018-02-18T01:32:59.003Z,1.06
2018-02-18T01:35:27.177Z,1.08
2018-02-18T01:37:54.740Z,1.06
2018-02-18T01:40:22.257Z,1.06
2018-02-18T01:42:50.072Z,1.04
2018-02-18T01:45:17.832Z,1.09
2018-02-18T01:47:45.688Z,1.04
2018-02-18T01:50:25.187Z,1.06
2018-02-18T01:52:52.682Z,1.09
2018-02-18T01:55:20.196Z,1.09
2018-02-18T01:57:47.747Z,1.11
2018-02-18T02:00:15.260Z,1.08
2018-02-18T02:02:42.752Z,1.09
2018-02-18T02:05:10.485Z,1.11
2018-02-18T02:07:38.184Z,1.13
2018-02-18T02:10:05.695Z,1.16
2018-02-18T02:12:33.200Z,1.12
2018-02-18T02:15:00.724Z,1.12
2018-02-18T02:17:28.222Z,1.10
2018-02-18T02:19:55.744Z,1.12
2018-02-18T02:22:23.240Z,1.10
2018-02-18T02:24:50.807Z,1.13
2018-02-18T02:27:18.379Z,1.12
2018-02-18T02:29:45.884Z,1.14
2018-02-18T02:32:13.832Z,1.14
2018-02-18T02:34:41.327Z,1.16
2018-02-18T02:37:08.845Z,1.16
2018-02-18T02:39:36.556Z,1.16
2018-02-18T02:42:04.197Z,1.10
2018-02-18T02:44:31.796Z,1.05
2018-02-18T02:46:59.752Z,1.04
2018-02-18T02:49:27.256Z,1.08
2018-02-18T02:51:54.833Z,1.12
2018-02-18T02:54:22.332Z,1.13
2018-02-18T02:56:49.861Z,1.12
2018-02-18T02:59:17.360Z,1.14
2018-02-18T03:01:44.927Z,1.17
2018-02-18T03:04:12.424Z,1.15
2018-02-18T03:06:40.229Z,1.10
2018-02-18T03:09:07.747Z,1.11
2018-02-18T03:11:35.267Z,1.11
2018-02-18T03:14:02.897Z,1.13
2018-02-18T03:16:30.817Z,1.16
2018-02-18T03:18:58.317Z,1.14
2018-02-18T03:21:25.884Z,1.16
2018-02-18T03:23:53.446Z,1.16
2018-02-18T03:26:20.988Z,1.16
2018-02-18T03:28:48.479Z,1.17
2018-02-18T03:31:16.493Z,1.14
2018-02-18T03:33:43.987Z,1.11
2018-02-18T03:36:11.854Z,1.10
2018-02-18T03:38:39.362Z,1.08
2018-02-18T03:41:07.257Z,1.05
2018-02-18T03:43:34.772Z,1.04
2018-02-18T03:46:02.728Z,1.03
2018-02-18T03:48:30.779Z,1.01
2018-02-18T03:50:58.356Z,1.03
2018-02-18T03:53:25.852Z,1.05
2018-02-18T03:55:53.344Z,1.04
2018-02-18T03:58:20.884Z,1.07
2018-02-18T04:00:48.384Z,1.08
2018-02-18T04:03:15.987Z,1.12
2018-02-18T04:05:43.593Z,1.08
2018-02-18T04:08:11.311Z,1.03
2018-02-18T04:10:38.804Z,1.03
2018-02-18T04:13:06.681Z,0.92
2018-02-18T04:15:34.188Z,0.93
2018-02-18T04:18:01.803Z,0.94
2018-02-18T04:20:29.269Z,0.96
2018-02-18T04:22:56.794Z,0.95
2018-02-18T04:25:24.290Z,0.98
2018-02-18T04:27:51.841Z,1.01
2018-02-18T04:30:19.536Z,1.03
2018-02-18T04:32:47.339Z,1.07
2018-02-18T04:35:14.857Z,1.06
2018-02-18T04:37:42.528Z,1.09
2018-02-18T04:40:10.024Z,1.13
2018-02-18T04:42:37.572Z,1.12
2018-02-18T04:45:05.149Z,1.11
2018-02-18T04:47:32.797Z,1.11
2018-02-18T04:50:00.518Z,1.04
2018-02-18T04:52:28.100Z,1.02
2018-02-18T04:54:55.835Z,1.01
2018-02-18T04:57:23.352Z,1.01
2018-02-18T04:59:50.977Z,1.04
2018-02-18T05:02:18.869Z,1.06
2018-02-18T05:04:46.608Z,1.09
2018-02-18T05:07:14.104Z,1.07
2018-02-18T05:09:41.782Z,1.08
2018-02-18T05:12:09.438Z,1.09
2018-02-18T05:14:38.294Z,1.01
2018-02-18T05:17:06.128Z,1.01
2018-02-18T05:19:33.647Z,0.98
2018-02-18T05:22:01.145Z,1.00
2018-02-18T05:24:36.819Z,1.03
2018-02-18T05:27:04.615Z,0.98
2018-02-18T05:29:32.310Z,0.98
2018-02-18T05:32:00.227Z,0.92
2018-02-18T05:34:27.980Z,0.93
2018-02-18T05:36:55.469Z,0.90
2018-02-18T05:39:23.314Z,0.90
2018-02-18T05:41:50.865Z,0.93
2018-02-18T05:44:18.679Z,0.92
2018-02-18T05:46:46.176Z,0.90
2018-02-18T05:49:13.708Z,0.95
2018-02-18T05:51:41.304Z,0.95
2018-02-18T05:54:08.832Z,0.94
2018-02-18T05:56:36.332Z,0.97
2018-02-18T05:59:03.853Z,0.91
2018-02-18T06:01:31.446Z,0.91
2018-02-18T06:03:58.995Z,0.90
2018-02-18T06:06:26.510Z,0.93
2018-02-18T06:08:54.291Z,1.01
2018-02-18T06:11:21.939Z,0.98
2018-02-18T06:13:49.651Z,0.95
2018-02-18T06:16:17.181Z,0.97
2018-02-18T06:18:44.701Z,0.99
2018-02-18T06:21:12.496Z,1.00
2018-02-18T06:23:40.095Z,1.04
2018-02-18T06:26:07.653Z,0.98
2018-02-18T06:28:35.193Z,1.04
2018-02-18T06:31:02.830Z,1.00
2018-02-18T06:33:30.325Z,0.98
2018-02-18T06:35:58.147Z,1.00
2018-02-18T06:38:26.208Z,1.02
2018-02-18T06:40:53.786Z,1.07
2018-02-18T06:43:26.608Z,1.03
2018-02-18T06:45:55.152Z,1.05
2018-02-18T06:48:23.839Z,1.06
2018-02-18T06:50:51.362Z,1.03
2018-02-18T06:53:18.996Z,1.05
2018-02-18T06:55:46.552Z,1.06
2018-02-18T06:58:14.355Z,1.08
2018-02-18T07:00:42.166Z,1.07
2018-02-18T07:03:09.743Z,1.09
2018-02-18T07:05:37.261Z,1.13
2018-02-18T07:08:04.753Z,1.15
2018-02-18T07:10:32.280Z,1.17
2018-02-18T07:12:59.795Z,1.20
2018-02-18T07:15:27.324Z,1.22
2018-02-18T07:17:54.920Z,1.23
2018-02-18T07:20:22.441Z,1.31
2018-02-18T07:22:50.263Z,1.36
2018-02-18T07:25:17.782Z,1.38
2018-02-18T07:27:45.688Z,1.35
2018-02-18T07:30:13.207Z,1.42
2018-02-18T07:32:40.699Z,1.43
2018-02-18T07:35:08.486Z,1.46
2018-02-18T07:37:36.421Z,1.47
2018-02-18T07:40:04.589Z,1.49
2018-02-18T07:42:32.277Z,1.53
2018-02-18T07:44:59.780Z,1.59
2018-02-18T07:47:27.299Z,1.69
2018-02-18T07:49:54.815Z,1.73
2018-02-18T07:52:22.371Z,1.69
2018-02-18T07:54:49.881Z,1.73
2018-02-18T07:57:17.404Z,1.80
2018-02-18T07:59:44.944Z,1.92
2018-02-18T08:02:12.964Z,2.05
2018-02-18T08:04:40.532Z,2.07
2018-02-18T08:07:08.264Z,2.09
2018-02-18T08:09:35.810Z,2.22
2018-02-18T08:12:03.325Z,2.32
2018-02-18T08:14:30.876Z,2.44
2018-02-18T08:16:58.681Z,2.66
2018-02-18T08:19:26.359Z,2.79
2018-02-18T08:21:53.931Z,3.02
2018-02-18T08:24:21.686Z,3.25
2018-02-18T08:26:49.327Z,3.55
2018-02-18T08:29:17.032Z,3.58
2018-02-18T08:31:44.565Z,3.56
2018-02-18T08:34:12.056Z,3.42
2018-02-18T08:36:39.832Z,3.16
2018-02-18T08:39:07.354Z,3.01
2018-02-18T08:41:34.877Z,2.97
2018-02-18T08:44:02.377Z,3.00
2018-02-18T08:46:29.908Z,3.00
2018-02-18T08:48:57.400Z,3.05
2018-02-18T08:51:25.006Z,3.03
2018-02-18T08:53:52.972Z,3.07
2018-02-18T08:56:20.480Z,3.11
2018-02-18T08:58:48.075Z,3.11
2018-02-18T09:01:15.740Z,3.05
2018-02-18T09:03:43.284Z,2.81
2018-02-18T09:06:10.779Z,2.90
2018-02-18T09:08:38.292Z,3.01
2018-02-18T09:11:05.834Z,2.95
2018-02-18T09:13:33.345Z,3.05
2018-02-18T09:16:00.854Z,3.09
2018-02-18T09:18:28.374Z,3.21
2018-02-18T09:20:56.103Z,3.32
2018-02-18T09:23:23.763Z,3.45
2018-02-18T09:25:51.352Z,3.52
2018-02-18T09:28:18.885Z,3.71
2018-02-18T09:30:46.376Z,3.69
2018-02-18T09:33:14.229Z,3.33
2018-02-18T09:35:41.732Z,3.49
2018-02-18T09:38:09.270Z,3.59
2018-02-18T09:40:36.852Z,3.36
2018-02-18T09:43:04.396Z,3.41
2018-02-18T09:45:31.940Z,3.20
2018-02-18T09:47:59.432Z,3.34
2018-02-18T09:50:26.949Z,3.38
2018-02-18T09:52:54.463Z,3.48
2018-02-18T09:55:21.982Z,3.77
2018-02-18T09:57:49.484Z,3.90
2018-02-18T10:00:16.999Z,3.91
2018-02-18T10:02:44.651Z,3.92
2018-02-18T10:05:13.169Z,4.29
2018-02-18T10:07:40.668Z,4.40
2018-02-18T10:10:08.185Z,4.41
2018-02-18T10:12:35.685Z,4.18
2018-02-18T10:15:03.336Z,4.50
2018-02-18T10:17:30.828Z,4.70
2018-02-18T10:19:58.355Z,4.31
2018-02-18T10:22:25.856Z,4.62
2018-02-18T10:24:53.380Z,4.44
2018-02-18T10:27:20.887Z,4.08
2018-02-18T10:29:48.405Z,4.01
2018-02-18T10:32:15.900Z,3.96
2018-02-18T10:34:43.447Z,3.96
2018-02-18T10:37:10.939Z,3.91
2018-02-18T10:39:38.471Z,3.93
2018-02-18T10:42:05.972Z,4.21
2018-02-18T10:44:33.508Z,4.01
2018-02-18T10:47:01.043Z,4.30
2018-02-18T10:49:28.557Z,4.56
2018-02-18T10:51:56.072Z,4.62
2018-02-18T10:54:23.572Z,5.18
2018-02-18T10:56:51.141Z,5.22
2018-02-18T10:59:18.765Z,5.87
2018-02-18T11:01:46.290Z,5.86
2018-02-18T11:04:13.805Z,5.54
2018-02-18T11:06:41.319Z,5.50
2018-02-18T11:09:09.265Z,5.97
2018-02-18T11:11:36.785Z,5.78
2018-02-18T11:14:04.364Z,5.66
2018-02-18T11:16:32.825Z,5.72
2018-02-18T11:19:00.321Z,5.54
2018-02-18T11:21:27.857Z,4.99
2018-02-18T11:23:55.349Z,5.74
2018-02-18T11:26:22.864Z,5.51
2018-02-18T11:28:50.359Z,5.13
2018-02-18T11:31:17.876Z,4.94
2018-02-18T11:33:45.372Z,5.11
2018-02-18T11:36:13.063Z,5.41
2018-02-18T11:38:40.564Z,5.99
2018-02-18T11:41:08.149Z,6.85
2018-02-18T11:43:35.639Z,7.53
2018-02-18T11:46:03.164Z,8.44
2018-02-18T11:48:30.716Z,8.96
2018-02-18T11:50:58.251Z,9.14
2018-02-18T11:53:25.945Z,8.80
2018-02-18T11:55:53.526Z,8.00
2018-02-18T11:58:21.817Z,7.00
2018-02-18T12:00:49.334Z,6.05
2018-02-18T12:03:17.771Z,5.87
2018-02-18T12:05:45.304Z,6.08
2018-02-18T12:08:12.819Z,5.35
2018-02-18T12:10:40.624Z,4.88
2018-02-18T12:13:08.155Z,4.94
2018-02-18T12:15:35.663Z,4.63
2018-02-18T12:18:03.204Z,4.76
2018-02-18T12:20:30.728Z,4.44
2018-02-18T12:22:58.237Z,4.39
2018-02-18T12:25:25.728Z,4.19
2018-02-18T12:27:53.868Z,4.24
2018-02-18T12:30:21.562Z,4.01
2018-02-18T12:32:49.152Z,3.77
2018-02-18T12:35:16.635Z,3.87
2018-02-18T12:37:44.171Z,3.81
2018-02-18T12:40:11.704Z,3.80
2018-02-18T12:42:39.232Z,3.80
2018-02-18T12:45:06.734Z,3.51
2018-02-18T12:47:34.328Z,3.24
2018-02-18T12:50:02.791Z,3.19
2018-02-18T12:52:30.315Z,3.41
2018-02-18T12:54:57.803Z,3.41
2018-02-18T12:57:25.316Z,3.25
2018-02-18T12:59:52.812Z,3.26
2018-02-18T13:02:20.391Z,3.21
2018-02-18T13:04:47.924Z,3.23
2018-02-18T13:07:15.443Z,2.90
2018-02-18T13:09:42.949Z,2.97
2018-02-18T13:12:10.473Z,3.20
2018-02-18T13:14:37.984Z,3.41
2018-02-18T13:17:05.531Z,3.48
2018-02-18T13:19:33.051Z,3.52
2018-02-18T13:22:00.540Z,3.70
2018-02-18T13:24:28.057Z,3.68
2018-02-18T13:26:55.610Z,3.89
2018-02-18T13:29:23.108Z,4.07
2018-02-18T13:31:50.608Z,3.67
2018-02-18T13:34:18.123Z,3.55
2018-02-18T13:36:45.653Z,3.58
2018-02-18T13:39:13.224Z,3.70
2018-02-18T13:41:40.721Z,3.87
2018-02-18T13:44:08.400Z,3.78
2018-02-18T13:46:35.903Z,3.74
2018-02-18T13:49:04.345Z,3.98
2018-02-18T13:51:31.844Z,4.27
2018-02-18T13:53:59.439Z,4.57
2018-02-18T13:56:27.932Z,4.80
2018-02-18T13:58:55.443Z,4.88
2018-02-18T14:01:22.965Z,4.74
2018-02-18T14:03:50.695Z,4.56
2018-02-18T14:06:18.195Z,4.30
2018-02-18T14:08:45.838Z,4.49
2018-02-18T14:11:13.523Z,4.35
2018-02-18T14:13:41.044Z,4.20
2018-02-18T14:16:08.575Z,4.15
2018-02-18T14:18:36.088Z,4.03
2018-02-18T14:21:03.673Z,3.75
2018-02-18T14:23:31.190Z,3.49
2018-02-18T14:25:58.681Z,3.66
2018-02-18T14:28:26.278Z,3.45
2018-02-18T14:30:53.848Z,3.64
2018-02-18T14:33:21.355Z,3.78
2018-02-18T14:35:48.912Z,3.92
2018-02-18T14:38:16.420Z,3.68
2018-02-18T14:40:43.936Z,3.61
2018-02-18T14:43:23.445Z,3.48
2018-02-18T14:46:02.775Z,3.42
2018-02-18T14:48:42.155Z,3.43
2018-02-18T14:51:21.636Z,3.54
2018-02-18T14:54:01.191Z,3.35
2018-02-18T14:56:40.747Z,3.38
2018-02-18T14:59:08.270Z,3.40
2018-02-18T15:01:35.767Z,3.20
2018-02-18T15:04:03.279Z,3.13
2018-02-18T15:06:30.809Z,3.18
2018-02-18T15:08:58.320Z,3.22
2018-02-18T15:11:25.916Z,3.28
2018-02-18T15:13:53.439Z,3.27
2018-02-18T15:16:20.951Z,3.26
2018-02-18T15:18:48.435Z,3.33
2018-02-18T15:21:16.920Z,3.20
2018-02-18T15:23:44.471Z,3.10
2018-02-18T15:26:11.993Z,3.22
2018-02-18T15:28:39.479Z,3.16
2018-02-18T15:31:06.987Z,3.12
2018-02-18T15:33:34.552Z,3.04
2018-02-18T15:36:02.060Z,2.89
2018-02-18T15:38:29.632Z,3.04
2018-02-18T15:40:57.172Z,3.06
2018-02-18T15:43:24.674Z,2.93
2018-02-18T15:45:52.198Z,2.83
2018-02-18T15:48:19.721Z,2.88
2018-02-18T15:50:47.240Z,3.05
2018-02-18T15:53:14.736Z,3.11
2018-02-18T15:55:42.279Z,3.10
2018-02-18T15:58:09.772Z,3.05
2018-02-18T16:00:37.408Z,2.95
2018-02-18T16:03:04.909Z,2.99
2018-02-18T16:05:32.524Z,2.89
2018-02-18T16:08:00.021Z,2.74
2018-02-18T16:10:27.580Z,2.70
2018-02-18T16:12:55.093Z,2.68
2018-02-18T16:15:22.611Z,2.70
2018-02-18T16:17:50.104Z,2.66
2018-02-18T16:20:17.636Z,2.71
2018-02-18T16:22:45.127Z,2.62
2018-02-18T16:25:14.660Z,2.55
2018-02-18T16:27:42.152Z,2.48
2018-02-18T16:30:09.684Z,2.52
2018-02-18T16:32:37.212Z,2.56
2018-02-18T16:35:04.731Z,2.48
2018-02-18T16:37:32.252Z,2.45
2018-02-18T16:39:59.743Z,2.38
2018-02-18T16:42:27.526Z,2.38
2018-02-18T16:44:55.036Z,2.36
2018-02-18T16:47:22.592Z,2.39
2018-02-18T16:49:50.084Z,2.46
2018-02-18T16:52:17.602Z,2.48
2018-02-18T16:54:45.111Z,2.50
2018-02-18T16:57:12.677Z,2.61
2018-02-18T16:59:40.167Z,2.61
2018-02-18T17:02:07.689Z,2.61
2018-02-18T17:04:35.184Z,2.50
2018-02-18T17:07:02.720Z,2.40
2018-02-18T17:09:30.216Z,2.42
2018-02-18T17:11:57.733Z,2.39
2018-02-18T17:14:25.221Z,2.40
2018-02-18T17:16:52.735Z,2.41
2018-02-18T17:19:20.239Z,2.41
2018-02-18T17:21:47.751Z,2.42
2018-02-18T17:24:15.242Z,2.39
2018-02-18T17:26:42.766Z,2.38
2018-02-18T17:29:10.259Z,2.36
2018-02-18T17:31:37.800Z,2.36
2018-02-18T17:34:05.295Z,2.33
2018-02-18T17:36:32.795Z,2.33
2018-02-18T17:39:00.323Z,2.35
2018-02-18T17:41:27.865Z,2.38
2018-02-18T17:43:55.386Z,2.49
2018-02-18T17:46:22.902Z,2.49
2018-02-18T17:48:50.414Z,2.35
2018-02-18T17:51:17.976Z,2.36
2018-02-18T17:53:45.534Z,2.38
2018-02-18T17:56:13.039Z,2.35
2018-02-18T17:58:40.576Z,2.34
2018-02-18T18:01:08.165Z,2.36
2018-02-18T18:03:35.708Z,2.44
2018-02-18T18:06:03.343Z,2.47
2018-02-18T18:08:30.887Z,2.51
2018-02-18T18:10:58.457Z,2.58
2018-02-18T18:13:25.988Z,2.59
2018-02-18T18:15:53.503Z,2.55
2018-02-18T18:18:21.117Z,2.55
2018-02-18T18:20:48.712Z,2.54
2018-02-18T18:23:16.364Z,2.56
2018-02-18T18:25:43.859Z,2.60
2018-02-18T18:28:11.442Z,2.60
2018-02-18T18:30:38.935Z,2.58
2018-02-18T18:33:06.535Z,2.59
2018-02-18T18:35:34.041Z,2.54
2018-02-18T18:38:01.580Z,2.56
2018-02-18T18:40:29.126Z,2.55
2018-02-18T18:42:56.680Z,2.55
2018-02-18T18:45:24.224Z,2.49
2018-02-18T18:47:51.764Z,2.51
2018-02-18T18:50:19.289Z,2.51
2018-02-18T18:52:46.799Z,2.48
2018-02-18T18:55:14.324Z,2.43
2018-02-18T18:57:41.832Z,2.47
2018-02-18T19:00:09.392Z,2.43
2018-02-18T19:02:36.907Z,2.39
2018-02-18T19:05:07.213Z,2.40
2018-02-18T19:07:36.651Z,2.42
2018-02-18T19:10:04.336Z,2.38
2018-02-18T19:12:31.831Z,2.41
2018-02-18T19:14:59.343Z,2.38
2018-02-18T19:17:26.833Z,2.36
2018-02-18T19:19:54.393Z,2.37
2018-02-18T19:22:21.892Z,2.36
2018-02-18T19:24:49.417Z,2.41
2018-02-18T19:27:16.938Z,2.42
2018-02-18T19:29:44.477Z,2.41
2018-02-18T19:32:11.968Z,2.40
2018-02-18T19:34:39.509Z,2.39
2018-02-18T19:37:07.073Z,2.34
2018-02-18T19:39:34.625Z,2.36
2018-02-18T19:42:02.125Z,2.33
2018-02-18T19:44:29.636Z,2.31
2018-02-18T19:46:57.138Z,2.30
2018-02-18T19:49:24.653Z,2.30
2018-02-18T19:51:52.147Z,2.29
2018-02-18T19:54:19.676Z,2.25
2018-02-18T19:56:47.184Z,2.23
2018-02-18T19:59:14.721Z,2.23
2018-02-18T20:01:42.249Z,2.27
2018-02-18T20:04:09.749Z,2.32
2018-02-18T20:06:37.281Z,2.36
2018-02-18T20:09:04.793Z,2.34
2018-02-18T20:11:32.714Z,2.33
2018-02-18T20:14:00.216Z,2.32
2018-02-18T20:16:27.736Z,2.30
2018-02-18T20:18:55.273Z,2.26
2018-02-18T20:21:22.819Z,2.25
2018-02-18T20:23:50.316Z,2.24
2018-02-18T20:26:17.846Z,2.23
2018-02-18T20:28:45.505Z,2.22
2018-02-18T20:31:13.020Z,2.21
2018-02-18T20:33:40.507Z,2.17
2018-02-18T20:36:08.021Z,2.15
2018-02-18T20:38:35.520Z,2.14
2018-02-18T20:41:03.040Z,2.11
2018-02-18T20:43:30.845Z,2.13
2018-02-18T20:45:58.369Z,2.11
2018-02-18T20:48:25.884Z,2.16
2018-02-18T20:50:53.409Z,2.09
2018-02-18T20:53:20.924Z,2.10
2018-02-18T20:55:48.440Z,2.08
2018-02-18T20:58:15.935Z,2.12
2018-02-18T21:00:43.452Z,2.08
2018-02-18T21:03:10.952Z,2.10
2018-02-18T21:05:39.469Z,2.10
2018-02-18T21:08:06.955Z,2.12
2018-02-18T21:10:34.483Z,2.18
2018-02-18T21:13:02.064Z,2.42
2018-02-18T21:15:29.665Z,2.52
2018-02-18T21:17:57.162Z,2.48
2018-02-18T21:20:24.916Z,2.40
2018-02-18T21:22:52.459Z,2.34
2018-02-18T21:25:20.042Z,2.54
2018-02-18T21:27:47.586Z,2.55
2018-02-18T21:30:15.096Z,2.68
2018-02-18T21:32:42.609Z,2.93
2018-02-18T21:35:10.104Z,3.09
2018-02-18T21:37:37.618Z,2.81
2018-02-18T21:40:05.103Z,2.65
2018-02-18T21:42:32.620Z,2.82
2018-02-18T21:45:00.117Z,3.11
2018-02-18T21:47:27.652Z,2.94
2018-02-18T21:49:55.147Z,2.96
2018-02-18T21:52:22.785Z,3.22
2018-02-18T21:54:50.592Z,3.02
2018-02-18T21:57:18.305Z,3.25
2018-02-18T21:59:45.797Z,3.00
2018-02-18T22:02:13.308Z,2.89
2018-02-18T22:04:40.823Z,2.97
2018-02-18T22:07:08.440Z,3.15
2018-02-18T22:09:35.969Z,3.24
2018-02-18T22:12:03.503Z,3.16
2018-02-18T22:14:31.006Z,2.90
2018-02-18T22:16:58.548Z,2.78
2018-02-18T22:19:26.042Z,3.24
2018-02-18T22:21:53.552Z,3.14
2018-02-18T22:24:21.088Z,2.98
2018-02-18T22:26:48.620Z,2.78
2018-02-18T22:29:16.304Z,2.58
2018-02-18T22:31:43.816Z,2.45
2018-02-18T22:34:11.304Z,2.51
2018-02-18T22:36:38.799Z,2.48
2018-02-18T22:39:06.348Z,2.43
2018-02-18T22:41:33.888Z,2.50
2018-02-18T22:44:01.412Z,2.39
2018-02-18T22:46:30.319Z,2.47
2018-02-18T22:48:57.908Z,2.39
2018-02-18T22:51:25.408Z,2.34
2018-02-18T22:53:52.926Z,2.26
2018-02-18T22:56:20.510Z,2.25
2018-02-18T22:58:48.060Z,2.07
2018-02-18T23:01:15.624Z,1.95
2018-02-18T23:03:43.238Z,1.89
2018-02-18T23:06:10.793Z,1.83
2018-02-18T23:08:38.460Z,1.78
2018-02-18T23:11:05.968Z,1.73
2018-02-18T23:13:33.488Z,1.71
2018-02-18T23:16:00.992Z,1.65
2018-02-18T23:18:28.542Z,1.65
2018-02-18T23:21:07.970Z,1.61
2018-02-18T23:23:35.506Z,1.58
2018-02-18T23:26:03.049Z,1.51
2018-02-18T23:28:30.796Z,1.50
2018-02-18T23:30:58.294Z,1.43
2018-02-18T23:33:26.089Z,1.43
2018-02-18T23:35:53.768Z,1.42
2018-02-18T23:38:21.288Z,1.41
2018-02-18T23:40:48.812Z,1.42
2018-02-18T23:43:16.440Z,1.42
2018-02-18T23:45:43.955Z,1.44
2018-02-18T23:48:11.731Z,1.44
2018-02-18T23:50:39.232Z,1.45
2018-02-18T23:53:07.130Z,1.43
2018-02-18T23:55:35.016Z,1.42
2018-02-18T23:58:02.625Z,1.39
